This is the latest recevied weather packets stored in our database for station/object SQ8NA-15. If no packets are shown the sender has not sent any weather packets the latest 10 day(s).
| Time | Temp. | Humidity | Pressure | Rain* | Wind** | Luminosity | Snow |
|---|---|---|---|---|---|---|---|
| 1787682227 | 16.67° C | 68% | 981.9 hPa | 0 mm | - | 0 W/m² | - |
| 1787680966 | 16.11° C | 68% | 981.8 hPa | 0 mm | - | 0 W/m² | - |
| 1787680366 | 16.11° C | 68% | 981.7 hPa | 0 mm | - | 0 W/m² | - |
| 1787679765 | 16.11° C | 70% | 981.7 hPa | 0 mm | - | 0 W/m² | - |
| 1787678553 | 16.67° C | 66% | 981.5 hPa | 0 mm | - | 2 W/m² | - |
| 1787677952 | 16.11° C | 66% | 981.4 hPa | 0 mm | - | 3 W/m² | - |
| 1787677342 | 16.11° C | 71% | 981.3 hPa | 0 mm | - | 5 W/m² | - |
| 1787676116 | 17.22° C | 62% | 981.3 hPa | 0 mm | - | 12 W/m² | - |
| 1787675503 | 16.67° C | 65% | 981.4 hPa | 0 mm | - | 13 W/m² | - |
| 1787674891 | 17.22° C | 65% | 981.4 hPa | 0 mm | - | 19 W/m² | - |
| 1787674252 | 16.67° C | 64% | 981.4 hPa | 0 mm | - | 19 W/m² | - |
| 1787673003 | 17.22° C | 65% | 981.3 hPa | 0 mm | - | 29 W/m² | - |
| 1787672403 | 17.78° C | 62% | 981.3 hPa | 0 mm | - | 27 W/m² | - |
| 1787671765 | 17.78° C | 62% | 981.3 hPa | 0 mm | - | 30 W/m² | - |
| 1787670503 | 17.78° C | 63% | 981.4 hPa | 0 mm | - | 58 W/m² | - |
| 1787669891 | 17.78° C | 62% | 981.6 hPa | 0 mm | - | 46 W/m² | - |
| 1787669254 | 18.33° C | 60% | 981.6 hPa | 0 mm | - | 54 W/m² | - |
| 1787667989 | 18.33° C | 59% | 981.5 hPa | 0 mm | - | 96 W/m² | - |
| 1787667378 | 18.89° C | 58% | 981.4 hPa | 0 mm | - | 103 W/m² | - |
| 1787666756 | 18.89° C | 60% | 981.4 hPa | 0 mm | - | 127 W/m² | - |
| 1787660491 | 18.89° C | 56% | 982 hPa | 0 mm | - | 149 W/m² | - |
| 1787659878 | 18.89° C | 55% | 981.9 hPa | 0 mm | - | 137 W/m² | - |
| 1787659264 | 18.89° C | 54% | 982 hPa | 0 mm | - | 124 W/m² | - |
| 1787658040 | 18.89° C | 55% | 981.8 hPa | 0 mm | - | 148 W/m² | - |
| 1787657428 | 18.89° C | 56% | 982.1 hPa | 0 mm | - | 110 W/m² | - |
* Rain latest hour (hover to see other rain measurements)
** Current wind speed in m/s (hover to see current wind gust speed)